sensor_id;sensor_type;location;lat;lon;timestamp;pressure;altitude;pressure_sealevel;temperature;humidity
21574;BME280;10948;48.706;9.258;2023-07-31T00:00:22;97844.88;;;15.43;100.00
21574;BME280;10948;48.706;9.258;2023-07-31T00:02:47;97843.63;;;15.25;100.00
21574;BME280;10948;48.706;9.258;2023-07-31T00:05:12;97841.53;;;15.52;100.00
21574;BME280;10948;48.706;9.258;2023-07-31T00:07:37;97833.44;;;15.44;100.00
21574;BME280;10948;48.706;9.258;2023-07-31T00:10:03;97835.41;;;15.29;100.00
21574;BME280;10948;48.706;9.258;2023-07-31T00:12:28;97838.19;;;15.39;100.00
21574;BME280;10948;48.706;9.258;2023-07-31T00:14:53;97837.38;;;15.38;100.00
21574;BME280;10948;48.706;9.258;2023-07-31T00:17:18;97837.41;;;15.15;100.00
21574;BME280;10948;48.706;9.258;2023-07-31T00:19:43;97837.19;;;15.18;100.00
21574;BME280;10948;48.706;9.258;2023-07-31T00:22:11;97838.81;;;14.86;100.00
21574;BME280;10948;48.706;9.258;2023-07-31T00:24:36;97843.34;;;14.95;100.00
21574;BME280;10948;48.706;9.258;2023-07-31T00:27:01;97844.81;;;14.99;100.00
21574;BME280;10948;48.706;9.258;2023-07-31T00:29:27;97850.28;;;14.96;100.00
21574;BME280;10948;48.706;9.258;2023-07-31T00:31:52;97840.97;;;14.92;100.00
21574;BME280;10948;48.706;9.258;2023-07-31T00:34:17;97843.34;;;14.95;100.00
21574;BME280;10948;48.706;9.258;2023-07-31T00:36:42;97839.13;;;14.59;100.00
21574;BME280;10948;48.706;9.258;2023-07-31T00:39:07;97839.78;;;14.85;100.00
21574;BME280;10948;48.706;9.258;2023-07-31T00:41:33;97837.91;;;15.09;100.00
21574;BME280;10948;48.706;9.258;2023-07-31T00:43:58;97848.00;;;14.91;100.00
21574;BME280;10948;48.706;9.258;2023-07-31T00:46:23;97844.28;;;14.72;100.00
21574;BME280;10948;48.706;9.258;2023-07-31T00:48:48;97836.75;;;14.67;100.00
21574;BME280;10948;48.706;9.258;2023-07-31T00:51:14;97827.84;;;14.81;100.00
21574;BME280;10948;48.706;9.258;2023-07-31T00:53:40;97833.53;;;14.64;100.00
21574;BME280;10948;48.706;9.258;2023-07-31T00:56:05;97822.00;;;14.66;100.00
21574;BME280;10948;48.706;9.258;2023-07-31T00:58:31;97820.91;;;14.58;100.00
21574;BME280;10948;48.706;9.258;2023-07-31T01:00:56;97816.00;;;14.53;100.00
21574;BME280;10948;48.706;9.258;2023-07-31T01:03:21;97813.50;;;14.52;100.00
21574;BME280;10948;48.706;9.258;2023-07-31T01:10:47;97814.91;;;14.45;100.00
21574;BME280;10948;48.706;9.258;2023-07-31T01:13:13;97814.47;;;14.51;100.00
21574;BME280;10948;48.706;9.258;2023-07-31T01:15:39;97812.09;;;14.59;100.00
21574;BME280;10948;48.706;9.258;2023-07-31T01:18:04;97814.00;;;14.57;100.00
21574;BME280;10948;48.706;9.258;2023-07-31T01:20:30;97812.34;;;14.56;100.00
21574;BME280;10948;48.706;9.258;2023-07-31T01:25:43;97816.84;;;14.07;100.00
21574;BME280;10948;48.706;9.258;2023-07-31T01:28:13;97816.16;;;14.05;100.00
21574;BME280;10948;48.706;9.258;2023-07-31T01:30:43;97810.13;;;14.39;100.00
21574;BME280;10948;48.706;9.258;2023-07-31T01:33:09;97810.81;;;14.30;100.00
21574;BME280;10948;48.706;9.258;2023-07-31T01:35:35;97803.44;;;14.35;100.00
21574;BME280;10948;48.706;9.258;2023-07-31T01:38:01;97799.66;;;14.39;100.00
21574;BME280;10948;48.706;9.258;2023-07-31T01:40:26;97798.44;;;14.32;100.00
21574;BME280;10948;48.706;9.258;2023-07-31T01:42:51;97798.94;;;14.37;100.00
21574;BME280;10948;48.706;9.258;2023-07-31T01:45:17;97793.44;;;14.29;100.00
21574;BME280;10948;48.706;9.258;2023-07-31T01:47:42;97794.88;;;14.33;100.00
21574;BME280;10948;48.706;9.258;2023-07-31T01:50:07;97795.31;;;14.03;100.00
21574;BME280;10948;48.706;9.258;2023-07-31T01:52:32;97797.38;;;14.11;100.00
21574;BME280;10948;48.706;9.258;2023-07-31T01:54:58;97788.66;;;14.23;100.00
21574;BME280;10948;48.706;9.258;2023-07-31T01:57:23;97792.97;;;14.11;100.00
21574;BME280;10948;48.706;9.258;2023-07-31T01:59:48;97794.09;;;14.20;100.00
21574;BME280;10948;48.706;9.258;2023-07-31T02:02:14;97790.09;;;14.27;100.00
21574;BME280;10948;48.706;9.258;2023-07-31T02:04:39;97787.13;;;14.31;100.00
21574;BME280;10948;48.706;9.258;2023-07-31T02:07:05;97785.59;;;14.40;100.00
21574;BME280;10948;48.706;9.258;2023-07-31T02:09:31;97790.84;;;14.40;100.00
21574;BME280;10948;48.706;9.258;2023-07-31T02:11:56;97785.97;;;14.12;100.00
21574;BME280;10948;48.706;9.258;2023-07-31T02:14:21;97789.75;;;14.08;100.00
21574;BME280;10948;48.706;9.258;2023-07-31T02:16:46;97783.63;;;14.20;100.00
21574;BME280;10948;48.706;9.258;2023-07-31T02:19:12;97776.78;;;14.41;100.00
21574;BME280;10948;48.706;9.258;2023-07-31T02:21:37;97771.50;;;14.19;100.00
21574;BME280;10948;48.706;9.258;2023-07-31T02:24:02;97769.91;;;14.16;100.00
21574;BME280;10948;48.706;9.258;2023-07-31T02:26:27;97764.69;;;13.93;100.00
21574;BME280;10948;48.706;9.258;2023-07-31T02:28:52;97770.94;;;14.03;100.00
21574;BME280;10948;48.706;9.258;2023-07-31T02:31:18;97767.97;;;14.07;100.00
21574;BME280;10948;48.706;9.258;2023-07-31T02:33:43;97762.31;;;13.90;100.00
21574;BME280;10948;48.706;9.258;2023-07-31T02:36:08;97752.19;;;13.85;100.00
21574;BME280;10948;48.706;9.258;2023-07-31T02:38:33;97750.47;;;13.97;100.00
21574;BME280;10948;48.706;9.258;2023-07-31T02:40:58;97750.34;;;13.75;100.00
21574;BME280;10948;48.706;9.258;2023-07-31T02:43:24;97754.94;;;13.84;100.00
21574;BME280;10948;48.706;9.258;2023-07-31T02:45:52;97763.41;;;13.98;100.00
21574;BME280;10948;48.706;9.258;2023-07-31T02:48:17;97757.38;;;13.74;100.00
21574;BME280;10948;48.706;9.258;2023-07-31T02:50:43;97753.88;;;13.86;100.00
21574;BME280;10948;48.706;9.258;2023-07-31T02:53:08;97753.56;;;14.02;100.00
21574;BME280;10948;48.706;9.258;2023-07-31T02:55:33;97762.25;;;14.02;100.00
21574;BME280;10948;48.706;9.258;2023-07-31T02:57:58;97752.94;;;13.98;100.00
21574;BME280;10948;48.706;9.258;2023-07-31T03:00:24;97755.44;;;13.89;100.00
21574;BME280;10948;48.706;9.258;2023-07-31T03:02:49;97750.56;;;13.72;100.00
21574;BME280;10948;48.706;9.258;2023-07-31T03:05:14;97740.13;;;13.72;100.00
21574;BME280;10948;48.706;9.258;2023-07-31T03:07:40;97738.03;;;13.64;100.00
21574;BME280;10948;48.706;9.258;2023-07-31T03:10:05;97741.25;;;13.57;100.00
21574;BME280;10948;48.706;9.258;2023-07-31T03:12:31;97735.56;;;13.63;100.00
21574;BME280;10948;48.706;9.258;2023-07-31T03:14:56;97728.81;;;13.71;100.00
21574;BME280;10948;48.706;9.258;2023-07-31T03:17:21;97732.94;;;13.63;100.00
21574;BME280;10948;48.706;9.258;2023-07-31T03:19:46;97738.72;;;13.55;100.00
21574;BME280;10948;48.706;9.258;2023-07-31T03:22:12;97736.03;;;13.44;100.00
21574;BME280;10948;48.706;9.258;2023-07-31T03:24:37;97730.78;;;13.57;100.00
21574;BME280;10948;48.706;9.258;2023-07-31T03:27:02;97735.41;;;13.53;100.00
21574;BME280;10948;48.706;9.258;2023-07-31T03:29:28;97736.19;;;13.66;100.00
21574;BME280;10948;48.706;9.258;2023-07-31T03:31:53;97748.94;;;13.58;100.00
21574;BME280;10948;48.706;9.258;2023-07-31T03:34:18;97746.22;;;13.60;100.00
21574;BME280;10948;48.706;9.258;2023-07-31T03:36:43;97735.16;;;13.56;100.00
21574;BME280;10948;48.706;9.258;2023-07-31T03:39:09;97724.94;;;13.53;100.00
21574;BME280;10948;48.706;9.258;2023-07-31T03:41:34;97731.31;;;13.73;100.00
21574;BME280;10948;48.706;9.258;2023-07-31T03:43:59;97736.22;;;13.54;100.00
21574;BME280;10948;48.706;9.258;2023-07-31T03:46:24;97743.28;;;13.64;100.00
21574;BME280;10948;48.706;9.258;2023-07-31T03:48:50;97737.78;;;13.80;100.00
21574;BME280;10948;48.706;9.258;2023-07-31T03:51:15;97742.47;;;13.64;100.00
21574;BME280;10948;48.706;9.258;2023-07-31T03:53:41;97743.28;;;13.64;100.00
21574;BME280;10948;48.706;9.258;2023-07-31T03:56:06;97748.84;;;13.83;100.00
21574;BME280;10948;48.706;9.258;2023-07-31T03:58:32;97740.72;;;13.75;100.00
21574;BME280;10948;48.706;9.258;2023-07-31T04:00:57;97738.72;;;13.79;100.00
21574;BME280;10948;48.706;9.258;2023-07-31T04:03:22;97745.78;;;13.66;100.00
21574;BME280;10948;48.706;9.258;2023-07-31T04:05:47;97746.06;;;13.50;100.00
21574;BME280;10948;48.706;9.258;2023-07-31T04:08:13;97743.19;;;13.66;100.00
21574;BME280;10948;48.706;9.258;2023-07-31T04:10:38;97754.94;;;13.84;100.00
21574;BME280;10948;48.706;9.258;2023-07-31T04:13:03;97746.97;;;13.85;100.00
21574;BME280;10948;48.706;9.258;2023-07-31T04:15:28;97754.94;;;13.84;100.00
21574;BME280;10948;48.706;9.258;2023-07-31T04:17:53;97748.03;;;13.83;100.00
21574;BME280;10948;48.706;9.258;2023-07-31T04:20:19;97744.34;;;13.85;100.00
21574;BME280;10948;48.706;9.258;2023-07-31T04:22:44;97742.56;;;13.86;100.00
21574;BME280;10948;48.706;9.258;2023-07-31T04:25:09;97741.16;;;13.93;100.00
21574;BME280;10948;48.706;9.258;2023-07-31T04:27:34;97731.72;;;14.14;100.00
21574;BME280;10948;48.706;9.258;2023-07-31T04:29:59;97731.72;;;14.14;100.00
21574;BME280;10948;48.706;9.258;2023-07-31T04:32:25;97721.81;;;14.30;100.00
21574;BME280;10948;48.706;9.258;2023-07-31T04:34:50;97723.97;;;14.36;100.00
21574;BME280;10948;48.706;9.258;2023-07-31T04:37:15;97724.69;;;14.38;100.00
21574;BME280;10948;48.706;9.258;2023-07-31T04:39:40;97725.63;;;14.48;100.00
21574;BME280;10948;48.706;9.258;2023-07-31T04:42:06;97725.88;;;14.45;100.00
21574;BME280;10948;48.706;9.258;2023-07-31T04:44:31;97737.06;;;14.36;100.00
21574;BME280;10948;48.706;9.258;2023-07-31T04:46:56;97739.31;;;14.40;100.00
21574;BME280;10948;48.706;9.258;2023-07-31T04:49:22;97731.88;;;14.69;100.00
21574;BME280;10948;48.706;9.258;2023-07-31T04:51:48;97735.91;;;14.62;100.00
21574;BME280;10948;48.706;9.258;2023-07-31T04:54:14;97737.78;;;14.60;100.00
21574;BME280;10948;48.706;9.258;2023-07-31T04:56:40;97733.53;;;14.81;100.00
21574;BME280;10948;48.706;9.258;2023-07-31T04:59:05;97734.00;;;14.75;100.00
21574;BME280;10948;48.706;9.258;2023-07-31T05:01:30;97735.19;;;14.71;100.00
21574;BME280;10948;48.706;9.258;2023-07-31T05:03:56;97721.63;;;14.77;100.00
21574;BME280;10948;48.706;9.258;2023-07-31T05:06:21;97730.44;;;14.76;100.00
21574;BME280;10948;48.706;9.258;2023-07-31T05:08:46;97735.69;;;14.76;100.00
21574;BME280;10948;48.706;9.258;2023-07-31T05:11:13;97725.56;;;14.93;100.00
21574;BME280;10948;48.706;9.258;2023-07-31T05:13:38;97722.47;;;14.99;100.00
21574;BME280;10948;48.706;9.258;2023-07-31T05:16:03;97735.69;;;14.98;100.00
21574;BME280;10948;48.706;9.258;2023-07-31T05:18:28;97732.94;;;14.99;100.00
21574;BME280;10948;48.706;9.258;2023-07-31T05:20:54;97727.78;;;15.20;100.00
21574;BME280;10948;48.706;9.258;2023-07-31T05:23:19;97723.75;;;15.16;100.00
21574;BME280;10948;48.706;9.258;2023-07-31T05:25:44;97726.84;;;15.21;100.00
21574;BME280;10948;48.706;9.258;2023-07-31T05:28:09;97719.22;;;15.29;100.00
21574;BME280;10948;48.706;9.258;2023-07-31T05:30:35;97718.50;;;15.38;100.00
21574;BME280;10948;48.706;9.258;2023-07-31T05:33:00;97724.44;;;15.51;100.00
21574;BME280;10948;48.706;9.258;2023-07-31T05:35:25;97725.28;;;15.83;100.00
21574;BME280;10948;48.706;9.258;2023-07-31T05:37:50;97718.88;;;16.07;100.00
21574;BME280;10948;48.706;9.258;2023-07-31T05:40:15;97713.81;;;16.36;100.00
21574;BME280;10948;48.706;9.258;2023-07-31T05:42:41;97713.75;;;16.47;100.00
21574;BME280;10948;48.706;9.258;2023-07-31T05:45:06;97721.59;;;16.58;100.00
21574;BME280;10948;48.706;9.258;2023-07-31T05:47:32;97717.44;;;16.85;100.00
21574;BME280;10948;48.706;9.258;2023-07-31T05:49:57;97713.19;;;17.33;100.00
21574;BME280;10948;48.706;9.258;2023-07-31T05:52:22;97708.81;;;17.52;100.00
21574;BME280;10948;48.706;9.258;2023-07-31T05:54:47;97713.44;;;17.98;100.00
21574;BME280;10948;48.706;9.258;2023-07-31T05:57:13;97711.00;;;18.80;96.92
21574;BME280;10948;48.706;9.258;2023-07-31T05:59:38;97712.03;;;19.33;91.92
21574;BME280;10948;48.706;9.258;2023-07-31T06:02:03;97703.38;;;19.41;89.22
21574;BME280;10948;48.706;9.258;2023-07-31T06:04:28;97696.75;;;19.54;85.93
21574;BME280;10948;48.706;9.258;2023-07-31T06:06:54;97699.69;;;19.24;86.46
21574;BME280;10948;48.706;9.258;2023-07-31T06:09:20;97704.97;;;19.24;85.63
21574;BME280;10948;48.706;9.258;2023-07-31T06:11:46;97707.09;;;19.83;83.67
21574;BME280;10948;48.706;9.258;2023-07-31T06:14:11;97702.06;;;19.89;80.69
21574;BME280;10948;48.706;9.258;2023-07-31T06:16:36;97693.03;;;20.09;78.48
21574;BME280;10948;48.706;9.258;2023-07-31T06:19:02;97703.13;;;19.96;77.35
21574;BME280;10948;48.706;9.258;2023-07-31T06:21:27;97697.63;;;20.25;77.78
21574;BME280;10948;48.706;9.258;2023-07-31T06:23:52;97700.75;;;20.71;77.20
21574;BME280;10948;48.706;9.258;2023-07-31T06:26:18;97700.28;;;20.25;76.96
21574;BME280;10948;48.706;9.258;2023-07-31T06:28:43;97709.16;;;20.06;77.79
21574;BME280;10948;48.706;9.258;2023-07-31T06:31:08;97695.88;;;20.33;76.52
21574;BME280;10948;48.706;9.258;2023-07-31T06:33:33;97695.41;;;20.63;75.17
21574;BME280;10948;48.706;9.258;2023-07-31T06:35:59;97692.66;;;20.73;74.67
21574;BME280;10948;48.706;9.258;2023-07-31T06:38:24;97702.31;;;21.07;72.80
21574;BME280;10948;48.706;9.258;2023-07-31T06:40:50;97700.69;;;21.14;72.05
21574;BME280;10948;48.706;9.258;2023-07-31T06:43:15;97702.94;;;21.84;69.84
21574;BME280;10948;48.706;9.258;2023-07-31T06:45:41;97705.31;;;22.59;68.66
21574;BME280;10948;48.706;9.258;2023-07-31T06:48:06;97698.31;;;22.74;66.18
21574;BME280;10948;48.706;9.258;2023-07-31T06:50:31;97701.66;;;22.36;65.00
21574;BME280;10948;48.706;9.258;2023-07-31T06:52:57;97702.97;;;22.00;66.96
21574;BME280;10948;48.706;9.258;2023-07-31T06:55:23;97695.00;;;22.00;67.55
21574;BME280;10948;48.706;9.258;2023-07-31T06:57:49;97701.53;;;23.24;63.76
21574;BME280;10948;48.706;9.258;2023-07-31T07:00:15;97710.25;;;23.71;60.75
21574;BME280;10948;48.706;9.258;2023-07-31T07:02:40;97697.91;;;23.09;60.37
21574;BME280;10948;48.706;9.258;2023-07-31T07:05:06;97707.09;;;22.83;62.74
21574;BME280;10948;48.706;9.258;2023-07-31T07:07:32;97710.34;;;25.41;56.31
21574;BME280;10948;48.706;9.258;2023-07-31T07:09:57;97708.19;;;23.89;58.60
21574;BME280;10948;48.706;9.258;2023-07-31T07:12:24;97711.34;;;23.84;58.59
21574;BME280;10948;48.706;9.258;2023-07-31T07:14:49;97708.44;;;24.02;59.30
21574;BME280;10948;48.706;9.258;2023-07-31T07:17:15;97708.31;;;24.18;57.55
21574;BME280;10948;48.706;9.258;2023-07-31T07:19:40;97706.06;;;24.52;57.84
21574;BME280;10948;48.706;9.258;2023-07-31T07:22:06;97711.72;;;24.49;57.71
21574;BME280;10948;48.706;9.258;2023-07-31T07:24:31;97707.94;;;23.38;60.73
21574;BME280;10948;48.706;9.258;2023-07-31T07:26:56;97707.69;;;23.09;62.54
21574;BME280;10948;48.706;9.258;2023-07-31T07:29:21;97703.31;;;22.61;62.53
21574;BME280;10948;48.706;9.258;2023-07-31T07:31:47;97703.84;;;23.11;60.90
21574;BME280;10948;48.706;9.258;2023-07-31T07:34:12;97698.09;;;21.72;63.38
21574;BME280;10948;48.706;9.258;2023-07-31T07:36:38;97696.03;;;22.55;63.71
21574;BME280;10948;48.706;9.258;2023-07-31T07:39:03;97687.34;;;22.77;62.85
21574;BME280;10948;48.706;9.258;2023-07-31T07:41:28;97696.00;;;22.31;64.44
21574;BME280;10948;48.706;9.258;2023-07-31T07:43:54;97697.63;;;21.84;65.71
21574;BME280;10948;48.706;9.258;2023-07-31T07:46:19;97693.38;;;22.55;63.97
21574;BME280;10948;48.706;9.258;2023-07-31T07:48:44;97682.91;;;22.62;63.33
21574;BME280;10948;48.706;9.258;2023-07-31T07:51:09;97689.63;;;25.58;57.47
21574;BME280;10948;48.706;9.258;2023-07-31T07:53:35;97682.88;;;24.60;57.21
21574;BME280;10948;48.706;9.258;2023-07-31T07:56:00;97692.03;;;22.67;61.61
21574;BME280;10948;48.706;9.258;2023-07-31T07:58:25;97684.63;;;23.78;59.11
21574;BME280;10948;48.706;9.258;2023-07-31T08:00:51;97686.63;;;24.29;58.79
21574;BME280;10948;48.706;9.258;2023-07-31T08:03:17;97679.84;;;29.67;50.74
21574;BME280;10948;48.706;9.258;2023-07-31T08:05:43;97690.63;;;25.57;52.10
21574;BME280;10948;48.706;9.258;2023-07-31T08:08:08;97698.91;;;27.56;52.62
21574;BME280;10948;48.706;9.258;2023-07-31T08:10:33;97690.22;;;24.58;56.12
21574;BME280;10948;48.706;9.258;2023-07-31T08:12:58;97682.25;;;27.54;52.95
21574;BME280;10948;48.706;9.258;2023-07-31T08:15:23;97671.22;;;26.61;50.19
21574;BME280;10948;48.706;9.258;2023-07-31T08:17:49;97676.72;;;26.60;52.06
21574;BME280;10948;48.706;9.258;2023-07-31T08:20:14;97684.22;;;27.32;49.95
21574;BME280;10948;48.706;9.258;2023-07-31T08:22:39;97679.16;;;31.91;42.59
21574;BME280;10948;48.706;9.258;2023-07-31T08:25:05;97677.63;;;32.54;40.34
21574;BME280;10948;48.706;9.258;2023-07-31T08:27:31;97674.28;;;33.05;38.86
21574;BME280;10948;48.706;9.258;2023-07-31T08:29:57;97685.28;;;31.98;40.70
21574;BME280;10948;48.706;9.258;2023-07-31T08:32:22;97669.09;;;32.69;39.39
21574;BME280;10948;48.706;9.258;2023-07-31T08:34:47;97671.88;;;33.54;39.88
21574;BME280;10948;48.706;9.258;2023-07-31T08:37:12;97677.44;;;33.99;37.04
21574;BME280;10948;48.706;9.258;2023-07-31T08:39:37;97672.03;;;33.87;38.05
21574;BME280;10948;48.706;9.258;2023-07-31T08:42:07;97672.44;;;34.07;37.04
21574;BME280;10948;48.706;9.258;2023-07-31T08:44:32;97661.56;;;33.91;37.53
21574;BME280;10948;48.706;9.258;2023-07-31T08:46:58;97659.53;;;35.84;35.70
21574;BME280;10948;48.706;9.258;2023-07-31T08:49:24;97654.44;;;36.41;34.53
21574;BME280;10948;48.706;9.258;2023-07-31T08:51:49;97645.78;;;35.48;35.33
21574;BME280;10948;48.706;9.258;2023-07-31T08:54:15;97636.91;;;35.14;34.81
21574;BME280;10948;48.706;9.258;2023-07-31T08:56:41;97639.28;;;36.71;34.03
21574;BME280;10948;48.706;9.258;2023-07-31T08:59:07;97645.50;;;34.73;36.38
21574;BME280;10948;48.706;9.258;2023-07-31T09:01:36;97651.78;;;30.87;40.61
21574;BME280;10948;48.706;9.258;2023-07-31T09:04:03;97646.59;;;31.10;39.63
21574;BME280;10948;48.706;9.258;2023-07-31T09:06:29;97637.19;;;28.24;45.70
21574;BME280;10948;48.706;9.258;2023-07-31T09:08:55;97636.97;;;29.60;43.82
21574;BME280;10948;48.706;9.258;2023-07-31T09:11:21;97622.69;;;36.68;34.46
21574;BME280;10948;48.706;9.258;2023-07-31T09:13:46;97620.34;;;30.14;41.46
21574;BME280;10948;48.706;9.258;2023-07-31T09:16:13;97628.84;;;30.11;42.12
21574;BME280;10948;48.706;9.258;2023-07-31T09:18:52;97619.06;;;30.16;43.18
21574;BME280;10948;48.706;9.258;2023-07-31T09:21:18;97621.38;;;30.13;43.11
21574;BME280;10948;48.706;9.258;2023-07-31T09:23:44;97622.88;;;30.82;42.21
21574;BME280;10948;48.706;9.258;2023-07-31T09:26:10;97616.59;;;29.84;44.42
21574;BME280;10948;48.706;9.258;2023-07-31T09:28:35;97635.00;;;27.74;47.21
21574;BME280;10948;48.706;9.258;2023-07-31T09:31:01;97620.13;;;30.15;43.22
21574;BME280;10948;48.706;9.258;2023-07-31T09:33:26;97622.31;;;30.74;42.10
21574;BME280;10948;48.706;9.258;2023-07-31T09:35:52;97622.97;;;29.52;43.77
21574;BME280;10948;48.706;9.258;2023-07-31T09:38:18;97617.28;;;29.66;43.57
21574;BME280;10948;48.706;9.258;2023-07-31T09:40:47;97626.28;;;29.41;44.99
21574;BME280;10948;48.706;9.258;2023-07-31T09:43:13;97611.16;;;27.79;47.67
21574;BME280;10948;48.706;9.258;2023-07-31T09:45:42;97613.03;;;27.25;48.14
21574;BME280;10948;48.706;9.258;2023-07-31T09:48:17;97620.81;;;27.20;48.38
21574;BME280;10948;48.706;9.258;2023-07-31T09:50:46;97609.28;;;27.19;48.98
21574;BME280;10948;48.706;9.258;2023-07-31T09:53:12;97604.19;;;26.90;48.00
21574;BME280;10948;48.706;9.258;2023-07-31T09:55:38;97594.56;;;27.36;48.35
21574;BME280;10948;48.706;9.258;2023-07-31T09:58:04;97589.09;;;26.49;49.29
21574;BME280;10948;48.706;9.258;2023-07-31T10:00:30;97581.06;;;28.87;46.18
21574;BME280;10948;48.706;9.258;2023-07-31T10:02:57;97582.78;;;29.70;43.68
21574;BME280;10948;48.706;9.258;2023-07-31T10:05:23;97587.50;;;30.05;45.05
21574;BME280;10948;48.706;9.258;2023-07-31T10:07:53;97586.56;;;27.49;47.58
21574;BME280;10948;48.706;9.258;2023-07-31T10:10:20;97576.34;;;25.89;50.20
21574;BME280;10948;48.706;9.258;2023-07-31T10:12:45;97575.91;;;25.50;50.01
21574;BME280;10948;48.706;9.258;2023-07-31T10:15:11;97564.38;;;25.14;52.21
21574;BME280;10948;48.706;9.258;2023-07-31T10:17:37;97558.22;;;25.85;51.63
21574;BME280;10948;48.706;9.258;2023-07-31T10:20:02;97551.00;;;26.06;52.40
21574;BME280;10948;48.706;9.258;2023-07-31T10:22:30;97542.97;;;25.79;52.49
21574;BME280;10948;48.706;9.258;2023-07-31T10:24:55;97545.94;;;28.19;47.61
21574;BME280;10948;48.706;9.258;2023-07-31T10:27:22;97544.75;;;26.48;49.85
21574;BME280;10948;48.706;9.258;2023-07-31T10:29:48;97537.75;;;28.97;47.25
21574;BME280;10948;48.706;9.258;2023-07-31T10:32:14;97537.28;;;30.12;44.95
21574;BME280;10948;48.706;9.258;2023-07-31T10:34:40;97552.31;;;28.11;46.99
21574;BME280;10948;48.706;9.258;2023-07-31T10:40:00;97523.81;;;26.51;47.79
21574;BME280;10948;48.706;9.258;2023-07-31T10:42:33;97520.44;;;28.93;44.84
21574;BME280;10948;48.706;9.258;2023-07-31T10:45:00;97529.69;;;26.68;48.15
21574;BME280;10948;48.706;9.258;2023-07-31T10:47:25;97528.59;;;26.96;48.11
21574;BME280;10948;48.706;9.258;2023-07-31T10:49:51;97521.84;;;26.60;49.91
21574;BME280;10948;48.706;9.258;2023-07-31T10:52:21;97530.69;;;26.33;49.83
21574;BME280;10948;48.706;9.258;2023-07-31T10:57:36;97517.09;;;26.28;50.46
21574;BME280;10948;48.706;9.258;2023-07-31T11:00:36;97515.78;;;26.85;49.77
21574;BME280;10948;48.706;9.258;2023-07-31T11:03:03;97514.06;;;26.65;50.17
21574;BME280;10948;48.706;9.258;2023-07-31T11:08:18;97507.63;;;28.12;46.89
21574;BME280;10948;48.706;9.258;2023-07-31T11:10:44;97502.84;;;28.53;44.24
21574;BME280;10948;48.706;9.258;2023-07-31T11:13:10;97500.16;;;27.49;47.11
21574;BME280;10948;48.706;9.258;2023-07-31T11:15:35;97506.53;;;27.48;48.55
21574;BME280;10948;48.706;9.258;2023-07-31T11:18:01;97514.56;;;26.88;48.45
21574;BME280;10948;48.706;9.258;2023-07-31T11:20:31;97504.34;;;26.98;48.97
21574;BME280;10948;48.706;9.258;2023-07-31T11:23:04;97500.31;;;27.15;49.01
21574;BME280;10948;48.706;9.258;2023-07-31T11:25:30;97500.91;;;27.17;49.06
21574;BME280;10948;48.706;9.258;2023-07-31T11:27:56;97508.38;;;26.74;50.27
21574;BME280;10948;48.706;9.258;2023-07-31T11:30:22;97508.81;;;26.50;50.49
21574;BME280;10948;48.706;9.258;2023-07-31T11:32:47;97505.56;;;26.95;49.46
21574;BME280;10948;48.706;9.258;2023-07-31T11:35:12;97501.09;;;26.62;49.90
21574;BME280;10948;48.706;9.258;2023-07-31T11:37:41;97503.53;;;26.57;49.88
21574;BME280;10948;48.706;9.258;2023-07-31T11:40:07;97500.13;;;26.42;51.68
21574;BME280;10948;48.706;9.258;2023-07-31T11:42:32;97506.75;;;26.12;50.97
21574;BME280;10948;48.706;9.258;2023-07-31T11:44:57;97505.88;;;26.05;51.50
21574;BME280;10948;48.706;9.258;2023-07-31T11:47:22;97506.97;;;25.68;52.41
21574;BME280;10948;48.706;9.258;2023-07-31T11:49:50;97509.78;;;25.88;52.14
21574;BME280;10948;48.706;9.258;2023-07-31T11:52:16;97502.44;;;25.69;52.28
21574;BME280;10948;48.706;9.258;2023-07-31T11:54:44;97486.63;;;25.40;52.28
21574;BME280;10948;48.706;9.258;2023-07-31T11:57:10;97487.75;;;25.52;53.44
21574;BME280;10948;48.706;9.258;2023-07-31T11:59:35;97477.56;;;25.62;53.68
21574;BME280;10948;48.706;9.258;2023-07-31T12:02:00;97474.53;;;24.87;54.24
21574;BME280;10948;48.706;9.258;2023-07-31T12:04:26;97467.66;;;25.14;54.88
21574;BME280;10948;48.706;9.258;2023-07-31T12:06:52;97475.03;;;25.12;53.90
21574;BME280;10948;48.706;9.258;2023-07-31T12:09:18;97458.66;;;25.15;54.25
21574;BME280;10948;48.706;9.258;2023-07-31T12:11:44;97448.09;;;25.21;53.54
21574;BME280;10948;48.706;9.258;2023-07-31T12:14:30;97454.34;;;24.93;54.26
21574;BME280;10948;48.706;9.258;2023-07-31T12:16:58;97446.69;;;24.69;56.09
21574;BME280;10948;48.706;9.258;2023-07-31T12:19:25;97451.66;;;24.72;55.51
21574;BME280;10948;48.706;9.258;2023-07-31T12:21:53;97456.31;;;24.70;55.18
21574;BME280;10948;48.706;9.258;2023-07-31T12:24:18;97457.56;;;24.88;55.73
21574;BME280;10948;48.706;9.258;2023-07-31T12:26:45;97448.34;;;24.91;55.27
21574;BME280;10948;48.706;9.258;2023-07-31T12:29:10;97441.84;;;25.14;54.13
21574;BME280;10948;48.706;9.258;2023-07-31T12:31:36;97447.94;;;25.08;54.20
21574;BME280;10948;48.706;9.258;2023-07-31T12:34:01;97441.03;;;25.14;54.02
21574;BME280;10948;48.706;9.258;2023-07-31T12:36:27;97438.88;;;24.67;55.30
21574;BME280;10948;48.706;9.258;2023-07-31T12:38:55;97442.41;;;24.89;56.16
21574;BME280;10948;48.706;9.258;2023-07-31T12:41:23;97435.31;;;24.96;56.36
21574;BME280;10948;48.706;9.258;2023-07-31T12:43:48;97431.19;;;24.58;57.67
21574;BME280;10948;48.706;9.258;2023-07-31T12:46:14;97427.59;;;24.51;56.39
21574;BME280;10948;48.706;9.258;2023-07-31T12:48:39;97428.03;;;24.54;56.94
21574;BME280;10948;48.706;9.258;2023-07-31T12:51:05;97425.38;;;24.69;56.28
21574;BME280;10948;48.706;9.258;2023-07-31T12:53:32;97427.25;;;24.68;56.29
21574;BME280;10948;48.706;9.258;2023-07-31T12:55:57;97415.41;;;24.92;55.51
21574;BME280;10948;48.706;9.258;2023-07-31T12:58:23;97412.91;;;24.40;57.63
21574;BME280;10948;48.706;9.258;2023-07-31T13:00:48;97401.75;;;24.45;57.20
21574;BME280;10948;48.706;9.258;2023-07-31T13:03:14;97400.78;;;24.67;56.99